Meteo Giornale » Osservazioni meteo Francia » Lione-Bron

ore: 05:00 - Osservazioni Meteo Lione-Bron
Lat. 45° 43' N Lon. 4° 57' E Alt. 200 metri s.l.m.

sereno Europe/Paris

19 °C

Sereno

Temp. 24 Ore

15 °C

29 °C

Nord

5.5 Km/h

Dew point 14 °C

Umidità 72 %

Visibilità  10 Km

Il sole sorge alle ore 07:25

Il sole tramonta alle ore 19:39

Data e Ora Cielo e Fenomeni T °C DP °C Um. % Pres. hPa Vis. km Vento km/h
Oggi h: 05:00 sereno Sereno 19 14 72 1012 10 N 5.5
Oggi h: 04:30 sereno Sereno 19 14 72 1012 10 SE 11.1
Oggi h: 04:00 sereno Sereno 20 14 68 1012 10 S/SE 11.1
Oggi h: 03:30 sereno Sereno 20 14 68 1012 10 SE 14.8
Oggi h: 03:00 sereno Sereno 20 14 68 1012 10 SE 14.8
Oggi h: 02:30 sereno Sereno 19 14 72 1012 10 SE 7.4
Oggi h: 02:00 sereno Sereno 20 14 68 1012 10 E/SE 9.3
Oggi h: 01:30 sereno Sereno 20 14 68 1012 10 E/SE 7.4
Oggi h: 01:00 sereno Sereno 20 14 68 1012 10 E/SE 9.3
Oggi h: 00:30 sereno Sereno 20 14 68 1012 10 SE 11.1
Oggi h: 00:00 sereno Sereno 20 14 68 1012 10 S/SE 11.1
Ieri h: 23:30 sereno Sereno 20 14 68 1013 10 SE 9.3
Ieri h: 23:00 sereno Sereno 20 14 68 1013 10 S/SE 11.1
Ieri h: 22:30 sereno Sereno 21 14 64 1013 10 S/SE 13
Ieri h: 22:00 sereno Sereno 21 14 64 1013 10 SE 9.3
Ieri h: 21:30 sereno Sereno 22 14 60 1013 10 SE 9.3
Ieri h: 21:00 sereno Sereno 22 14 60 1013 10 S/SE 13
Ieri h: 20:30 sereno Sereno 22 14 60 1013 10 S 18.5
Ieri h: 20:00 sereno Sereno 23 14 56 1013 10 S 14.8
Ieri h: 19:30 sereno Sereno 23 13 53 1014 10 S 27.8
Ieri h: 19:00 sereno Sereno 24 12 47 1013 10 S 24
Ieri h: 18:00 sereno Sereno 25 12 44 1013 10 S 20.3
Ieri h: 17:00 sereno Sereno 27 11 36 1013 10 S/SO 29.6
Ieri h: 16:30 sereno Sereno 27 11 36 1014 10 S 29.6
Ieri h: 16:00 sereno Sereno 29 11 32 1014 10 S 24
Ieri h: 15:30 sereno Sereno 28 11 34 1014 10 S 25.9
Ieri h: 15:00 sereno Sereno 26 11 39 1015 10 S/SE 18.5
Ieri h: 14:30 sereno Sereno 26 11 39 1015 10 S 25.9
Ieri h: 14:00 sereno Sereno 27 11 36 1016 10 S 29.6
Ieri h: 13:30 sereno Sereno 27 12 39 1016 10 S 31.5
Ieri h: 13:00 sereno Sereno 27 11 36 1016 10 S 31.5
Ieri h: 12:30 sereno Sereno 26 11 39 1017 10 S 25.9
Ieri h: 12:00 sereno Sereno 25 10 38 1017 10 S 29.6
Ieri h: 11:30 sereno Sereno 24 11 43 1017 10 S/SE 20.3
Ieri h: 11:00 sereno Sereno 23 11 46 1017 10 S/SE 20.3
Ieri h: 10:30 sereno Sereno 23 10 43 1018 10 SE 16.7
Ieri h: 09:30 sereno Sereno 20 11 56 1018 10 E/SE 13
Ieri h: 09:00 sereno Sereno 19 12 63 1018 10 E/SE 11.1
Ieri h: 08:30 sereno Sereno 17 12 72 1018 10 E 11.1
Ieri h: 08:00 sereno Sereno 15 12 82 1018 10 E 11.1
Ieri h: 07:30 sereno Sereno 15 11 76 1018 10 E 11.1
Ieri h: 07:00 sereno Sereno 16 12 77 1018 10 E 13